Time;durP1;ratioP1;P1;durP2;ratioP2;P2;SDS_P1;SDS_P2;PMS_P1;PMS_P2;Temp;Humidity;BMP_temperature;BMP_pressure;BME280_temperature;BME280_humidity;BME280_pressure;Samples;Min_cycle;Max_cycle;Signal;HPM_P1;HPM_P2
2021/12/01 00:00:49;;;;;;;;;;;3.20;99.90;;;;;;5071674;28;20079;-53
2021/12/01 00:03:15;;;;;;;2.65;1.77;;;3.20;99.90;;;;;;5070685;28;19979;-54
2021/12/01 00:05:43;;;;;;;1.88;1.70;;;3.20;99.90;;;;;;5071451;28;20503;-51
2021/12/01 00:08:10;;;;;;;2.30;1.95;;;3.20;99.90;;;;;;5071065;28;20044;-51
2021/12/01 00:10:38;;;;;;;2.97;2.10;;;3.20;99.90;;;;;;5070926;28;20412;-53
2021/12/01 00:13:10;;;;;;;4.40;2.20;;;3.20;99.90;;;;;;5070738;28;20493;-54
2021/12/01 00:15:37;;;;;;;3.08;2.28;;;3.20;99.90;;;;;;5070932;28;20055;-54
2021/12/01 00:18:04;;;;;;;3.70;2.22;;;3.10;99.90;;;;;;5071210;28;20094;-52
2021/12/01 00:20:32;;;;;;;7.10;3.00;;;3.10;99.90;;;;;;5071436;28;20382;-52
2021/12/01 00:22:59;;;;;;;;;;;3.10;99.90;;;;;;5071463;28;20040;-53
2021/12/01 00:25:30;;;;;;;4.45;2.90;;;3.00;99.90;;;;;;5073611;28;19920;-54
2021/12/01 00:27:58;;;;;;;8.50;5.63;;;3.00;99.90;;;;;;5074903;28;20067;-50
2021/12/01 00:30:25;;;;;;;8.75;5.60;;;3.00;99.90;;;;;;5056739;28;20051;-51
2021/12/01 00:32:53;;;;;;;8.05;5.50;;;3.00;99.90;;;;;;5074919;28;20044;-54
2021/12/01 00:35:21;;;;;;;8.50;5.50;;;3.00;99.90;;;;;;5072250;28;20501;-51
2021/12/01 00:37:49;;;;;;;5.63;3.65;;;2.90;99.90;;;;;;5073664;28;20052;-50
2021/12/01 00:40:17;;;;;;;7.15;4.32;;;3.00;99.90;;;;;;5054771;28;20041;-53
2021/12/01 00:42:44;;;;;;;7.28;4.53;;;3.00;99.90;;;;;;5054600;28;20103;-52
2021/12/01 00:45:16;;;;;;;6.10;4.38;;;3.00;99.90;;;;;;5065076;28;20064;-50
2021/12/01 00:47:45;;;;;;;10.75;6.00;;;3.00;99.90;;;;;;5074726;28;20045;-53
2021/12/01 00:50:29;;;;;;;9.52;6.68;;;3.00;99.90;;;;;;5074463;28;20063;-52
2021/12/01 00:52:59;;;;;;;7.63;5.55;;;3.00;99.90;;;;;;5074315;28;20063;-50
2021/12/01 00:55:26;;;;;;;8.88;5.53;;;2.90;99.90;;;;;;5056276;28;20501;-52
2021/12/01 00:57:54;;;;;;;8.68;5.78;;;2.90;99.90;;;;;;5074350;28;20080;-51
2021/12/01 01:00:23;;;;;;;12.07;6.18;;;2.80;99.90;;;;;;5074288;28;20040;-52
2021/12/01 01:02:51;;;;;;;10.45;6.55;;;2.90;99.90;;;;;;5074406;28;20517;-52
2021/12/01 01:05:19;;;;;;;8.50;6.05;;;2.80;99.90;;;;;;5073814;28;20052;-50
2021/12/01 01:07:46;;;;;;;8.15;5.97;;;2.80;99.90;;;;;;5073905;28;20106;-52
2021/12/01 01:11:09;;;;;;;9.98;5.63;;;2.90;99.90;;;;;;5074297;28;20451;-51
2021/12/01 01:18:42;;;;;;;10.70;5.32;;;2.80;99.90;;;;;;5074055;28;20052;-50
2021/12/01 01:21:10;;;;;;;8.80;5.47;;;2.80;99.90;;;;;;5073960;28;20044;-50
2021/12/01 01:23:38;;;;;;;9.45;5.88;;;2.80;99.90;;;;;;5073505;28;20124;-51
2021/12/01 01:26:08;;;;;;;10.45;5.95;;;2.90;99.90;;;;;;5073882;28;20044;-53
2021/12/01 01:28:35;;;;;;;10.80;5.82;;;2.90;99.90;;;;;;5073776;28;20111;-51
2021/12/01 01:31:03;;;;;;;11.02;6.28;;;2.90;99.90;;;;;;5073720;28;20789;-51
2021/12/01 01:33:30;;;;;;;8.00;5.43;;;2.90;99.90;;;;;;5073264;28;20041;-52
2021/12/01 01:35:57;;;;;;;9.95;6.03;;;2.90;99.90;;;;;;5072832;28;20040;-50
2021/12/01 01:38:24;;;;;;;9.20;6.35;;;2.90;99.90;;;;;;5074021;28;20080;-50
2021/12/01 01:40:51;;;;;;;7.90;5.95;;;2.90;99.90;;;;;;5073731;28;20049;-51
2021/12/01 01:43:18;;;;;;;11.13;6.20;;;2.90;99.90;;;;;;5073093;28;20047;-53
2021/12/01 01:45:46;;;;;;;9.02;5.63;;;2.90;99.90;;;;;;5073182;28;20044;-51
2021/12/01 01:48:14;;;;;;;8.20;5.85;;;2.90;99.90;;;;;;5073547;28;20044;-51
2021/12/01 01:50:43;;;;;;;10.55;6.07;;;2.80;99.90;;;;;;5073341;28;20091;-50
2021/12/01 01:53:22;;;;;;;10.02;5.80;;;2.80;99.90;;;;;;5072936;28;20040;-50
2021/12/01 01:55:52;;;;;;;8.68;5.60;;;2.80;99.90;;;;;;5073084;28;20098;-52
2021/12/01 01:58:21;;;;;;;8.52;5.75;;;2.80;99.90;;;;;;5073326;28;20048;-51
2021/12/01 02:01:03;;;;;;;8.45;5.72;;;2.80;99.90;;;;;;5055304;28;20144;-50
2021/12/01 02:03:31;;;;;;;8.70;5.80;;;2.90;99.90;;;;;;5072533;28;20041;-51
2021/12/01 02:05:57;;;;;;;;;;;2.90;99.90;;;;;;5073552;28;20039;-51
2021/12/01 02:08:31;;;;;;;10.15;6.10;;;2.90;99.90;;;;;;5071753;28;19924;-51
2021/12/01 02:11:01;;;;;;;12.40;6.75;;;2.90;99.90;;;;;;5073087;28;20059;-50
2021/12/01 02:13:28;;;;;;;8.48;6.13;;;2.90;99.90;;;;;;5072231;28;20041;-53
2021/12/01 02:15:57;;;;;;;9.43;6.20;;;2.90;99.90;;;;;;5072883;28;20531;-54
2021/12/01 02:18:25;;;;;;;11.35;6.55;;;2.90;99.90;;;;;;5072955;28;20045;-52
2021/12/01 02:21:16;;;;;;;9.63;6.72;;;2.90;99.90;;;;;;5072466;28;20076;-51
2021/12/01 02:23:46;;;;;;;10.82;6.63;;;2.90;99.90;;;;;;5072233;28;20041;-51
2021/12/01 02:26:19;;;;;;;9.25;6.45;;;2.90;99.90;;;;;;5072769;28;20040;-52
2021/12/01 02:28:50;;;;;;;11.38;6.90;;;2.90;99.90;;;;;;5072436;28;20515;-50
2021/12/01 02:31:18;;;;;;;10.10;6.80;;;2.90;99.90;;;;;;5072659;28;20048;-50
2021/12/01 02:33:45;;;;;;;11.27;6.63;;;2.90;99.90;;;;;;5072083;28;20408;-51
2021/12/01 02:36:13;;;;;;;;;;;3.00;99.90;;;;;;5072916;28;20551;-54
2021/12/01 02:38:44;;;;;;;8.43;5.78;;;3.00;99.90;;;;;;5072421;28;19928;-53
2021/12/01 02:41:11;;;;;;;9.70;6.50;;;2.90;99.90;;;;;;5072229;28;20123;-51
2021/12/01 02:43:39;;;;;;;13.05;6.22;;;2.90;99.90;;;;;;5071791;28;20447;-50
2021/12/01 02:46:06;;;;;;;11.23;6.88;;;2.90;99.90;;;;;;5072378;28;20041;-50
2021/12/01 02:48:41;;;;;;;;;;;2.80;99.90;;;;;;5072645;28;20580;-50
2021/12/01 02:51:12;;;;;;;9.50;6.32;;;2.70;99.90;;;;;;5072188;28;20026;-51
2021/12/01 02:53:40;;;;;;;13.68;8.02;;;2.70;99.90;;;;;;5071574;28;20626;-51
2021/12/01 02:56:08;;;;;;;10.40;6.82;;;2.60;99.90;;;;;;5071925;28;20037;-50
2021/12/01 02:58:40;;;;;;;11.77;7.40;;;2.60;99.90;;;;;;5072040;28;20074;-49
2021/12/01 03:01:20;;;;;;;12.93;7.45;;;2.60;99.90;;;;;;5072027;28;20124;-50
2021/12/01 03:03:48;;;;;;;11.95;7.53;;;2.60;99.90;;;;;;5071534;28;20040;-51
2021/12/01 03:06:17;;;;;;;10.88;7.18;;;2.60;99.90;;;;;;5071655;28;20455;-52
2021/12/01 03:08:45;;;;;;;12.98;7.50;;;2.50;99.90;;;;;;5070662;28;20439;-51
2021/12/01 03:11:13;;;;;;;12.13;7.93;;;2.50;99.90;;;;;;5071915;28;20083;-52
2021/12/01 03:13:41;;;;;;;14.68;7.95;;;2.50;99.90;;;;;;5071378;28;20037;-52
2021/12/01 03:16:08;;;;;;;12.88;7.78;;;2.40;99.90;;;;;;5071587;28;20127;-52
2021/12/01 03:18:35;;;;;;;15.73;8.05;;;2.50;99.90;;;;;;5071863;28;20032;-52
2021/12/01 03:21:03;;;;;;;14.05;8.13;;;2.40;99.90;;;;;;5071607;28;20043;-51
2021/12/01 03:23:30;;;;;;;14.70;8.40;;;2.40;99.90;;;;;;5071358;28;20488;-51
2021/12/01 03:25:57;;;;;;;12.20;7.18;;;2.40;99.90;;;;;;5071438;28;20080;-54
2021/12/01 03:28:24;;;;;;;11.85;7.25;;;2.40;99.90;;;;;;5071720;28;20044;-54
2021/12/01 03:30:52;;;;;;;12.45;8.23;;;2.40;99.90;;;;;;5071637;28;20135;-54
2021/12/01 03:33:22;;;;;;;15.23;8.52;;;2.40;99.90;;;;;;5071523;28;20049;-50
2021/12/01 03:35:53;;;;;;;15.32;9.23;;;2.40;99.90;;;;;;5071210;28;20037;-53
2021/12/01 03:38:25;;;;;;;14.95;7.80;;;2.40;99.90;;;;;;5071570;28;20045;-52
2021/12/01 03:40:58;;;;;;;12.13;8.10;;;2.40;99.90;;;;;;5071770;28;20048;-52
2021/12/01 03:43:25;;;;;;;17.60;8.60;;;2.40;99.90;;;;;;5071232;28;20041;-52
2021/12/01 03:45:52;;;;;;;15.73;8.63;;;2.40;99.90;;;;;;5071369;28;20102;-53
2021/12/01 03:48:21;;;;;;;13.68;8.65;;;2.30;99.90;;;;;;5071191;28;20056;-50
2021/12/01 03:50:50;;;;;;;17.08;8.35;;;2.40;99.90;;;;;;5071641;28;20080;-52
2021/12/01 03:53:19;;;;;;;16.08;9.20;;;2.40;99.90;;;;;;5071079;28;20086;-52
2021/12/01 03:55:46;;;;;;;14.98;9.30;;;2.40;99.90;;;;;;5071284;28;20040;-53
2021/12/01 03:58:13;;;;;;;16.02;8.75;;;2.40;99.90;;;;;;5071187;28;20045;-54
2021/12/01 04:00:40;;;;;;;17.02;8.73;;;2.40;99.90;;;;;;5074349;28;20065;-55
2021/12/01 04:03:07;;;;;;;15.40;9.90;;;2.40;99.90;;;;;;5075045;28;20049;-51
2021/12/01 04:05:34;;;;;;;18.15;8.73;;;2.40;99.90;;;;;;5075331;28;20058;-56
2021/12/01 04:08:02;;;;;;;15.30;9.35;;;2.30;99.90;;;;;;5075398;28;20068;-55
2021/12/01 04:10:30;;;;;;;15.77;8.95;;;2.30;99.90;;;;;;5075270;28;20098;-55
2021/12/01 04:12:57;;;;;;;17.25;9.25;;;2.30;99.90;;;;;;5075043;28;20404;-51
2021/12/01 04:15:24;;;;;;;17.85;9.38;;;2.40;99.90;;;;;;5074857;28;20546;-55
2021/12/01 04:17:51;;;;;;;16.20;9.07;;;2.40;99.90;;;;;;5075214;28;20116;-54
2021/12/01 04:20:18;;;;;;;14.70;9.13;;;2.30;99.90;;;;;;5075251;28;20036;-52
2021/12/01 04:22:49;;;;;;;16.55;9.02;;;2.30;99.90;;;;;;5074859;28;20048;-52
2021/12/01 04:25:16;;;;;;;14.18;9.07;;;2.30;99.90;;;;;;5074652;28;20041;-52
2021/12/01 04:27:43;;;;;;;19.23;10.20;;;2.40;99.90;;;;;;5074930;28;20070;-54
2021/12/01 04:30:13;;;;;;;18.85;10.30;;;2.40;99.90;;;;;;5057025;28;20060;-55
2021/12/01 04:32:40;;;;;;;19.58;9.85;;;2.30;99.90;;;;;;5074790;28;20076;-54
2021/12/01 04:35:08;;;;;;;15.35;9.68;;;2.40;99.90;;;;;;5074283;28;20044;-55
2021/12/01 04:37:35;;;;;;;15.75;9.90;;;2.40;99.90;;;;;;5074888;28;20451;-54
2021/12/01 04:40:05;;;;;;;19.95;11.75;;;2.40;99.90;;;;;;5074878;28;20489;-54
2021/12/01 04:42:32;;;;;;;20.23;10.75;;;2.40;99.90;;;;;;5074530;28;20550;-55
2021/12/01 04:44:59;;;;;;;;;;;2.50;99.90;;;;;;5074593;28;20045;-53
2021/12/01 04:47:28;;;;;;;18.45;11.02;;;2.50;99.90;;;;;;5074565;28;19927;-52
2021/12/01 04:49:56;;;;;;;17.08;10.35;;;2.50;99.90;;;;;;5074587;28;20041;-52
2021/12/01 04:52:23;;;;;;;;;;;2.50;99.90;;;;;;5074946;28;20052;-53
2021/12/01 04:54:50;;;;;;;18.52;9.95;;;2.50;99.90;;;;;;5073931;28;20170;-55
2021/12/01 04:57:17;;;;;;;18.50;10.40;;;2.50;99.90;;;;;;5074507;28;20051;-54
2021/12/01 04:59:44;;;;;;;17.80;11.13;;;2.50;99.90;;;;;;5074224;28;20471;-51
2021/12/01 05:02:12;;;;;;;20.98;10.68;;;2.60;99.90;;;;;;5074258;28;20041;-52
2021/12/01 05:04:41;;;;;;;17.27;9.38;;;2.60;99.90;;;;;;5073908;28;20110;-54
2021/12/01 05:07:13;;;;;;;17.65;9.73;;;2.60;99.90;;;;;;5074290;28;20090;-54
2021/12/01 05:09:40;;;;;;;23.23;12.18;;;2.60;99.90;;;;;;5074000;28;20049;-53
2021/12/01 05:12:08;;;;;;;23.05;11.23;;;2.60;99.90;;;;;;5072937;28;20049;-55
2021/12/01 05:14:36;;;;;;;24.95;11.27;;;2.60;99.90;;;;;;5073548;28;20044;-52
2021/12/01 05:17:04;;;;;;;19.67;11.57;;;2.60;99.90;;;;;;5074058;28;20040;-52
2021/12/01 05:19:31;;;;;;;20.83;11.70;;;2.50;99.90;;;;;;5073864;28;20121;-53
2021/12/01 05:21:58;;;;;;;20.42;11.75;;;2.50;99.90;;;;;;5073943;28;20040;-54
2021/12/01 05:24:25;;;;;;;22.08;11.18;;;2.50;99.90;;;;;;5088154;22;20128;-51
2021/12/01 05:26:52;;;;;;;18.13;11.30;;;2.50;99.90;;;;;;5073630;28;20044;-53
2021/12/01 05:29:20;;;;;;;26.45;12.60;;;2.50;99.90;;;;;;5073652;28;20078;-50
2021/12/01 05:31:48;;;;;;;24.00;12.35;;;2.50;99.90;;;;;;5056514;28;20086;-52
2021/12/01 05:34:15;;;;;;;21.92;12.43;;;2.50;99.90;;;;;;5073105;28;20071;-50
2021/12/01 05:36:42;;;;;;;23.38;12.23;;;2.50;99.90;;;;;;5073591;28;20052;-48
2021/12/01 05:39:09;;;;;;;23.63;11.57;;;2.50;99.90;;;;;;5073915;28;20047;-54
2021/12/01 05:41:36;;;;;;;22.05;12.02;;;2.50;99.90;;;;;;5072313;28;20044;-51
2021/12/01 05:44:04;;;;;;;22.95;12.25;;;2.60;99.90;;;;;;5073206;28;20052;-54
2021/12/01 05:46:33;;;;;;;21.98;11.45;;;2.50;99.90;;;;;;5073550;28;20045;-53
2021/12/01 05:49:00;;;;;;;27.73;13.73;;;2.50;99.90;;;;;;5073509;28;20452;-53
2021/12/01 05:51:27;;;;;;;23.10;13.07;;;2.50;99.90;;;;;;5073374;28;20045;-52
2021/12/01 05:53:54;;;;;;;16.17;8.85;;;2.50;99.90;;;;;;5072708;28;20040;-51
2021/12/01 05:56:21;;;;;;;29.63;12.60;;;2.60;99.90;;;;;;5073177;28;20497;-53
2021/12/01 05:58:47;;;;;;;17.02;10.35;;;2.60;99.90;;;;;;5073360;28;20509;-48
2021/12/01 06:01:14;;;;;;;15.48;8.32;;;2.60;99.90;;;;;;5073070;28;20045;-54
2021/12/01 06:03:43;;;;;;;19.80;9.85;;;2.60;99.90;;;;;;5072736;28;20044;-53
2021/12/01 06:06:10;;;;;;;18.30;9.75;;;2.60;99.90;;;;;;5072998;28;20048;-51
2021/12/01 06:08:37;;;;;;;22.67;12.27;;;2.60;99.90;;;;;;5072887;28;20047;-53
2021/12/01 06:11:04;;;;;;;23.75;12.93;;;2.70;99.90;;;;;;5072805;28;20041;-49
2021/12/01 06:13:31;;;;;;;27.50;13.70;;;2.70;99.90;;;;;;5072409;28;20045;-50
2021/12/01 06:15:58;;;;;;;;;;;2.60;99.90;;;;;;5073329;28;20040;-51
2021/12/01 06:18:25;;;;;;;26.73;13.73;;;2.60;99.90;;;;;;5072844;28;20448;-53
2021/12/01 06:20:52;;;;;;;27.95;13.23;;;2.60;99.90;;;;;;5072735;28;20036;-49
2021/12/01 06:23:19;;;;;;;22.67;12.25;;;2.60;99.90;;;;;;5071987;28;20044;-53
2021/12/01 06:25:47;;;;;;;23.55;12.75;;;2.60;99.90;;;;;;5072671;28;20064;-50
2021/12/01 06:28:14;;;;;;;21.98;11.23;;;2.60;99.90;;;;;;5072502;28;20084;-53
2021/12/01 06:30:41;;;;;;;25.88;11.45;;;2.50;99.90;;;;;;5072468;28;20102;-53
2021/12/01 06:33:10;;;;;;;25.75;12.70;;;2.50;99.90;;;;;;5072230;28;20037;-51
2021/12/01 06:35:37;;;;;;;29.80;12.30;;;2.50;99.90;;;;;;5072662;28;20044;-49
2021/12/01 06:38:04;;;;;;;24.60;12.85;;;2.40;99.90;;;;;;5072499;28;20063;-52
2021/12/01 06:40:31;;;;;;;25.48;12.27;;;2.40;99.90;;;;;;5072560;28;20086;-54
2021/12/01 06:42:59;;;;;;;21.55;12.02;;;2.40;99.90;;;;;;5071955;28;20048;-54
2021/12/01 06:45:26;;;;;;;27.20;13.57;;;2.50;99.90;;;;;;5070920;28;20037;-54
2021/12/01 06:47:52;;;;;;;20.58;11.40;;;2.50;99.90;;;;;;5070523;28;20041;-56
2021/12/01 06:50:19;;;;;;;22.90;9.43;;;2.50;99.90;;;;;;5069916;28;20040;-54
2021/12/01 06:52:47;;;;;;;24.35;12.40;;;2.50;99.90;;;;;;5070387;28;20044;-51
2021/12/01 06:55:14;;;;;;;20.23;11.23;;;2.60;99.90;;;;;;5070915;28;20439;-55
2021/12/01 06:57:42;;;;;;;23.63;11.27;;;2.60;99.90;;;;;;5071397;28;20055;-54
2021/12/01 07:00:12;;;;;;;22.73;11.98;;;2.50;99.90;;;;;;5071475;28;20072;-54
2021/12/01 07:02:40;;;;;;;23.60;11.95;;;2.50;99.90;;;;;;5072068;28;20086;-50
2021/12/01 07:05:09;;;;;;;23.15;11.73;;;2.60;99.90;;;;;;5071607;28;20128;-54
2021/12/01 07:07:37;;;;;;;30.40;11.93;;;2.70;99.90;;;;;;5071820;28;20045;-54
2021/12/01 07:10:07;;;;;;;23.95;12.45;;;2.60;99.90;;;;;;5072190;28;20045;-52
2021/12/01 07:12:33;;;;;;;24.08;13.07;;;2.60;99.90;;;;;;5072109;28;20522;-50
2021/12/01 07:15:01;;;;;;;23.23;13.15;;;2.60;99.90;;;;;;5071277;28;20101;-54
2021/12/01 07:17:28;;;;;;;28.85;14.38;;;2.70;99.90;;;;;;5071689;28;20037;-54
2021/12/01 07:19:55;;;;;;;26.23;13.95;;;2.70;99.90;;;;;;5071807;28;20036;-55
2021/12/01 07:22:22;;;;;;;31.70;14.25;;;2.70;99.90;;;;;;5071801;28;20040;-53
2021/12/01 07:24:49;;;;;;;19.38;10.52;;;2.80;99.90;;;;;;5071083;28;20394;-54
2021/12/01 07:27:16;;;;;;;25.65;12.80;;;2.90;99.90;;;;;;5071753;28;20052;-54
2021/12/01 07:29:45;;;;;;;26.17;12.20;;;2.90;99.90;;;;;;5071857;28;20393;-55
2021/12/01 07:32:12;;;;;;;22.52;11.70;;;3.00;99.90;;;;;;5071686;28;20044;-56
2021/12/01 07:34:42;;;;;;;25.92;14.25;;;3.00;99.90;;;;;;5070463;28;20044;-55
2021/12/01 07:37:14;;;;;;;22.05;11.82;;;3.10;99.90;;;;;;5071594;28;20493;-56
2021/12/01 07:39:42;;;;;;;21.58;11.20;;;3.20;99.90;;;;;;5071705;28;20444;-54
2021/12/01 07:42:09;;;;;;;;;;;3.20;99.90;;;;;;5072044;28;20044;-55
2021/12/01 07:44:36;;;;;;;15.57;8.05;;;3.30;99.90;;;;;;5071000;28;19956;-56
2021/12/01 07:47:04;;;;;;;16.50;8.95;;;3.30;99.90;;;;;;5071388;28;20056;-54
2021/12/01 07:49:31;;;;;;;;;;;3.30;99.90;;;;;;5071904;28;20047;-56
2021/12/01 07:52:00;;;;;;;17.45;8.48;;;3.30;99.90;;;;;;5053837;28;20458;-56
2021/12/01 07:54:27;;;;;;;16.48;8.40;;;3.30;99.90;;;;;;5071026;28;20052;-53
2021/12/01 07:56:54;;;;;;;16.30;8.27;;;3.40;99.90;;;;;;5071102;28;20041;-54
2021/12/01 07:59:21;;;;;;;20.73;9.10;;;3.50;99.90;;;;;;5071368;28;20079;-54
2021/12/01 08:01:49;;;;;;;31.70;11.70;;;3.50;99.90;;;;;;5071416;28;20493;-56
2021/12/01 08:04:16;;;;;;;38.42;14.32;;;3.50;99.90;;;;;;5070891;28;20124;-55
2021/12/01 08:06:43;;;;;;;27.38;12.63;;;3.40;99.90;;;;;;5071217;28;20131;-56
2021/12/01 08:09:11;;;;;;;26.60;12.25;;;3.40;99.90;;;;;;5071202;28;20045;-55
2021/12/01 08:11:38;;;;;;;19.42;10.88;;;3.40;99.90;;;;;;5071153;28;20143;-55
2021/12/01 08:14:08;;;;;;;19.48;10.80;;;3.30;99.90;;;;;;5070804;28;20040;-55
2021/12/01 08:16:36;;;;;;;18.50;9.63;;;3.30;99.90;;;;;;5071380;28;20134;-56
2021/12/01 08:19:04;;;;;;;27.95;12.60;;;3.30;99.90;;;;;;5071126;28;20433;-56
2021/12/01 08:21:32;;;;;;;35.80;14.88;;;3.20;99.90;;;;;;5071135;28;20045;-54
2021/12/01 08:24:10;;;;;;;18.38;10.05;;;3.20;99.90;;;;;;5070536;28;20041;-54
2021/12/01 08:26:38;;;;;;;16.85;8.25;;;3.20;99.90;;;;;;5071373;28;20048;-55
2021/12/01 08:29:05;;;;;;;15.13;8.80;;;3.20;99.90;;;;;;5071101;28;20493;-55
2021/12/01 08:31:33;;;;;;;17.00;8.52;;;3.30;99.90;;;;;;5070994;28;20052;-54
2021/12/01 08:34:00;;;;;;;;;;;3.30;99.90;;;;;;5070877;28;20068;-54
2021/12/01 08:36:27;;;;;;;19.23;10.10;;;3.40;99.90;;;;;;5070940;28;20377;-56
2021/12/01 08:38:54;;;;;;;17.65;10.48;;;3.40;99.90;;;;;;5053026;28;20718;-53
2021/12/01 08:41:21;;;;;;;21.50;10.07;;;3.40;99.90;;;;;;5070964;28;20036;-55
2021/12/01 08:43:48;;;;;;;20.02;10.43;;;3.50;99.90;;;;;;5069868;28;20497;-55
2021/12/01 08:46:15;;;;;;;25.80;12.90;;;3.50;99.90;;;;;;5072695;28;20448;-54
2021/12/01 08:48:42;;;;;;;35.67;15.35;;;3.60;99.90;;;;;;5074082;28;20125;-56
2021/12/01 08:51:09;;;;;;;27.95;15.57;;;3.60;99.90;;;;;;5056602;28;20448;-55
2021/12/01 08:53:39;;;;;;;31.02;16.20;;;3.70;99.90;;;;;;5074110;28;20048;-53
2021/12/01 08:56:07;;;;;;;22.33;12.50;;;3.70;99.90;;;;;;5074252;28;20407;-55
2021/12/01 08:58:34;;;;;;;18.98;10.82;;;3.70;99.90;;;;;;5074179;28;20094;-57
2021/12/01 09:01:02;;;;;;;23.60;11.07;;;3.80;99.90;;;;;;5074482;28;20451;-52
2021/12/01 09:03:29;;;;;;;18.23;10.57;;;4.00;99.90;;;;;;5073947;28;20461;-57
2021/12/01 09:05:56;;;;;;;22.63;11.75;;;4.10;99.90;;;;;;5074927;28;20155;-55
2021/12/01 09:08:24;;;;;;;26.52;11.65;;;4.20;99.90;;;;;;5074254;28;20497;-55
2021/12/01 09:10:56;;;;;;;22.92;12.23;;;4.40;99.90;;;;;;5074070;28;20045;-57
2021/12/01 09:13:25;;;;;;;25.48;11.07;;;4.40;99.90;;;;;;5073665;28;20052;-55
2021/12/01 09:15:53;;;;;;;19.30;11.32;;;4.50;99.90;;;;;;5074037;28;20063;-55
2021/12/01 09:18:21;;;;;;;22.63;11.80;;;4.50;99.90;;;;;;5074155;28;20044;-55
2021/12/01 09:20:49;;;;;;;53.10;24.13;;;4.50;99.90;;;;;;5073921;28;20041;-55
2021/12/01 09:23:17;;;;;;;43.30;20.73;;;4.40;99.90;;;;;;5073617;28;20083;-53
2021/12/01 09:25:45;;;;;;;35.50;18.02;;;4.30;99.90;;;;;;5073599;28;20131;-55
2021/12/01 09:28:19;;;;;;;21.88;10.00;;;4.30;99.90;;;;;;5073971;28;20059;-56
2021/12/01 09:30:46;;;;;;;24.85;14.00;;;4.40;99.90;;;;;;5074021;28;20105;-56
2021/12/01 09:33:14;;;;;;;17.75;11.27;;;4.40;99.90;;;;;;5073304;28;20045;-55
2021/12/01 09:35:43;;;;;;;18.25;11.32;;;4.40;99.90;;;;;;5073744;28;20111;-54
2021/12/01 09:38:13;;;;;;;16.58;9.63;;;4.50;99.90;;;;;;5073638;28;20041;-52
2021/12/01 09:40:46;;;;;;;16.42;8.80;;;4.60;99.90;;;;;;5073744;28;20041;-57
2021/12/01 09:43:15;;;;;;;17.85;9.73;;;4.90;99.90;;;;;;5073148;28;20132;-56
2021/12/01 09:45:43;;;;;;;23.05;11.52;;;5.10;99.90;;;;;;5073753;28;20453;-55
2021/12/01 09:48:10;;;;;;;14.90;8.77;;;5.20;99.90;;;;;;5055585;28;20105;-55
2021/12/01 09:50:38;;;;;;;17.75;9.20;;;5.20;99.90;;;;;;5055458;28;20122;-56
2021/12/01 09:53:05;;;;;;;16.77;9.55;;;5.20;99.90;;;;;;5073264;28;20051;-55
2021/12/01 09:55:32;;;;;;;16.30;8.25;;;5.40;99.90;;;;;;5073133;28;20045;-55
2021/12/01 09:58:05;;;;;;;11.50;7.18;;;5.50;99.90;;;;;;5072655;28;20097;-55
2021/12/01 10:00:35;;;;;;;12.57;7.32;;;5.70;99.90;;;;;;5073340;28;20040;-56
2021/12/01 10:03:03;;;;;;;12.90;6.88;;;5.80;99.90;;;;;;5072995;28;20040;-56
2021/12/01 10:05:46;;;;;;;10.13;6.70;;;5.90;99.90;;;;;;5073076;28;20036;-56
2021/12/01 10:08:27;;;;;;;14.63;6.80;;;6.00;99.90;;;;;;5073206;28;20485;-57
2021/12/01 10:10:55;;;;;;;13.02;7.78;;;6.00;99.90;;;;;;5073177;28;20041;-57
2021/12/01 10:13:31;;;;;;;14.05;8.32;;;5.80;99.90;;;;;;5072775;28;20048;-56
2021/12/01 10:16:02;;;;;;;16.60;9.40;;;5.50;99.90;;;;;;5072859;28;20131;-55
2021/12/01 10:18:36;;;;;;;16.80;9.32;;;5.30;99.90;;;;;;5072955;28;20089;-56
2021/12/01 10:21:13;;;;;;;14.13;8.80;;;5.30;99.90;;;;;;5072910;28;20036;-52
2021/12/01 10:23:55;;;;;;;14.07;8.98;;;5.30;99.90;;;;;;5072588;28;20053;-55
2021/12/01 10:26:25;;;;;;;17.58;10.82;;;5.20;99.90;;;;;;5072712;28;20527;-56
2021/12/01 10:28:53;;;;;;;14.60;9.38;;;5.10;99.90;;;;;;5072773;28;20525;-54
2021/12/01 10:31:38;;;;;;;15.20;9.43;;;5.10;99.90;;;;;;5072809;28;20052;-56
2021/12/01 10:34:17;;;;;;;14.90;9.55;;;5.20;99.90;;;;;;5072026;28;20044;-56
2021/12/01 10:36:46;;;;;;;13.57;8.43;;;5.10;99.90;;;;;;5072441;28;20044;-53
2021/12/01 10:39:14;;;;;;;15.73;9.63;;;5.20;99.90;;;;;;5072586;28;20044;-54
2021/12/01 10:41:43;;;;;;;15.43;10.05;;;5.10;99.90;;;;;;5072465;28;20489;-55
2021/12/01 10:44:17;;;;;;;14.75;9.32;;;5.00;99.90;;;;;;5072057;28;20040;-56
2021/12/01 10:46:53;;;;;;;18.13;10.65;;;5.00;99.90;;;;;;5072335;28;20040;-54
2021/12/01 10:49:34;;;;;;;19.63;11.05;;;4.90;99.90;;;;;;5072417;28;20047;-53
2021/12/01 10:52:02;;;;;;;17.80;10.32;;;4.80;99.90;;;;;;5072290;28;20090;-53
2021/12/01 10:54:28;;;;;;;18.13;11.15;;;4.70;99.90;;;;;;5071839;28;20090;-56
2021/12/01 10:57:16;;;;;;;24.40;11.95;;;4.70;99.90;;;;;;5072105;28;20044;-54
2021/12/01 10:59:48;;;;;;;37.40;18.17;;;4.80;99.90;;;;;;5072339;28;20052;-57
2021/12/01 11:02:16;;;;;;;25.05;14.00;;;4.80;99.90;;;;;;5071983;28;20037;-55
2021/12/01 11:04:48;;;;;;;18.98;10.90;;;5.00;99.90;;;;;;5071759;28;20041;-53
2021/12/01 11:07:34;;;;;;;16.75;10.35;;;5.30;99.90;;;;;;5071714;28;20119;-53
2021/12/01 11:10:22;;;;;;;16.58;9.80;;;5.50;99.90;;;;;;5071297;28;20048;-56
2021/12/01 11:12:56;;;;;;;18.50;10.20;;;5.60;99.90;;;;;;5071878;28;20044;-56
2021/12/01 11:15:25;;;;;;;9.77;7.03;;;5.50;99.90;;;;;;5071810;28;20044;-55
2021/12/01 11:17:54;;;;;;;12.48;7.72;;;5.70;99.90;;;;;;5071731;28;20123;-54
2021/12/01 11:20:41;;;;;;;14.23;7.07;;;5.70;99.90;;;;;;5071725;28;20048;-51
2021/12/01 11:23:17;;;;;;;10.18;6.25;;;5.70;99.90;;;;;;5071469;28;20036;-55
2021/12/01 11:25:54;;;;;;;14.65;7.78;;;5.80;99.90;;;;;;5108483;22;20050;-49
2021/12/01 11:28:24;;;;;;;10.90;7.05;;;5.80;99.90;;;;;;5111795;28;20051;-52
2021/12/01 11:30:55;;;;;;;10.23;6.55;;;5.70;99.90;;;;;;5111920;28;20485;-50
2021/12/01 11:33:25;;;;;;;11.20;7.38;;;5.70;99.90;;;;;;5111870;28;20133;-50
2021/12/01 11:35:55;;;;;;;11.82;6.70;;;5.90;99.90;;;;;;5112194;28;20056;-53
2021/12/01 11:38:23;;;;;;;10.02;7.10;;;6.00;99.90;;;;;;5112082;28;20044;-49
2021/12/01 11:40:51;;;;;;;9.70;5.95;;;6.00;99.90;;;;;;5112133;28;20059;-51
2021/12/01 11:43:21;;;;;;;10.23;5.88;;;6.10;99.90;;;;;;5111625;28;20039;-51
2021/12/01 11:45:48;;;;;;;8.75;5.45;;;6.20;99.90;;;;;;5111094;28;20042;-50
2021/12/01 11:48:20;;;;;;;11.93;6.18;;;6.30;99.90;;;;;;5111476;28;20048;-49
2021/12/01 11:50:54;;;;;;;9.05;5.93;;;6.50;99.90;;;;;;5112056;28;20487;-51
2021/12/01 11:53:32;;;;;;;8.57;5.78;;;6.60;99.90;;;;;;5111658;28;20092;-52
2021/12/01 11:56:10;;;;;;;10.93;6.13;;;6.60;99.90;;;;;;5111950;28;20036;-50
2021/12/01 11:58:44;;;;;;;9.93;6.28;;;6.70;99.90;;;;;;5111868;28;20492;-50
2021/12/01 12:01:20;;;;;;;8.93;6.20;;;6.70;99.90;;;;;;5111892;28;20122;-49
2021/12/01 12:03:53;;;;;;;11.95;6.60;;;6.70;99.90;;;;;;5111609;28;20043;-53
2021/12/01 12:06:22;;;;;;;27.77;13.82;;;6.60;99.90;;;;;;5111877;28;20403;-51
2021/12/01 12:09:06;;;;;;;34.80;17.02;;;6.60;99.90;;;;;;5112054;28;20040;-50
2021/12/01 12:11:34;;;;;;;13.05;7.93;;;6.70;99.90;;;;;;5111843;28;20533;-52
2021/12/01 12:14:13;;;;;;;;;;;6.70;99.90;;;;;;5111931;28;20506;-51
2021/12/01 12:16:41;;;;;;;9.73;5.70;;;6.70;99.90;;;;;;5111513;28;19935;-53
2021/12/01 12:19:09;;;;;;;11.13;6.57;;;6.70;99.90;;;;;;5111716;28;20101;-51
2021/12/01 12:21:43;;;;;;;11.13;6.53;;;6.70;99.90;;;;;;5114669;28;20036;-53
2021/12/01 12:24:18;;;;;;;11.57;6.80;;;6.60;99.90;;;;;;5115637;28;20048;-51
2021/12/01 12:26:49;;;;;;;13.35;7.32;;;6.60;99.90;;;;;;5115802;28;20127;-54
2021/12/01 12:29:25;;;;;;;13.88;7.55;;;6.50;99.90;;;;;;5115809;28;20051;-53
2021/12/01 12:32:13;;;;;;;12.52;7.78;;;6.40;99.90;;;;;;5115357;28;20047;-52
2021/12/01 12:34:51;;;;;;;15.20;8.00;;;6.30;99.90;;;;;;5115177;28;20100;-51
2021/12/01 12:37:26;;;;;;;12.25;7.85;;;6.30;99.90;;;;;;5115276;28;20126;-50
2021/12/01 12:39:55;;;;;;;16.38;8.90;;;6.30;99.90;;;;;;5115436;28;20040;-51
2021/12/01 12:42:22;;;;;;;13.65;8.75;;;6.20;99.90;;;;;;5115533;28;20038;-51
2021/12/01 12:44:54;;;;;;;11.20;7.65;;;6.20;99.90;;;;;;5115074;28;20040;-52
2021/12/01 12:47:36;;;;;;;14.40;8.65;;;6.10;99.90;;;;;;5115380;28;20071;-51
2021/12/01 12:50:11;;;;;;;16.55;8.77;;;5.90;99.90;;;;;;5111858;28;20097;-51
2021/12/01 12:52:41;;;;;;;13.27;8.48;;;5.90;99.90;;;;;;5115306;28;20090;-51
2021/12/01 12:55:23;;;;;;;14.15;9.65;;;5.90;99.90;;;;;;5114558;28;20108;-53
2021/12/01 12:57:57;;;;;;;15.88;9.57;;;5.80;99.90;;;;;;5115110;28;20039;-51
2021/12/01 13:00:26;;;;;;;16.45;9.20;;;5.90;99.90;;;;;;5115028;28;20076;-52
2021/12/01 13:03:00;;;;;;;16.67;9.95;;;5.90;99.90;;;;;;5115029;28;20041;-51
2021/12/01 13:05:32;;;;;;;21.10;11.82;;;6.00;99.90;;;;;;5106411;28;20131;-51